Time;durP1;ratioP1;P1;durP2;ratioP2;P2;SDS_P1;SDS_P2;PMS_P1;PMS_P2;Temp;Humidity;BMP_temperature;BMP_pressure;BME280_temperature;BME280_humidity;BME280_pressure;Samples;Min_cycle;Max_cycle;Signal;HPM_P1;HPM_P2
2021/11/09 00:01:25;;;;;;;;;77.00;60.67;;;;;;;;5054864;28;45439;-77
2021/11/09 00:04:00;;;;;;;;;80.33;63.33;;;;;;;;5053867;28;45420;-78
2021/11/09 00:06:28;;;;;;;;;77.00;61.33;;;;;;;;5054875;28;45278;-76
2021/11/09 00:08:57;;;;;;;;;74.67;57.00;;;;;;;;5054627;28;45488;-77
2021/11/09 00:11:26;;;;;;;;;82.00;66.33;;;;;;;;5054299;28;46220;-76
2021/11/09 00:13:52;;;;;;;;;72.33;57.67;;;;;;;;5056033;28;45288;-75
2021/11/09 00:16:18;;;;;;;;;74.67;59.33;;;;;;;;5055225;28;45288;-77
2021/11/09 00:18:45;;;;;;;;;73.25;56.75;;;;;;;;5053359;28;45233;-76
2021/11/09 00:21:10;;;;;;;;;75.00;58.00;;;;;;;;5053425;28;46640;-76
2021/11/09 00:23:36;;;;;;;;;73.67;58.00;;;;;;;;5054018;28;45518;-75
2021/11/09 00:26:01;;;;;;;;;76.67;59.67;;;;;;;;5054277;28;45344;-77
2021/11/09 00:28:26;;;;;;;;;74.00;60.00;;;;;;;;5054879;28;45442;-76
2021/11/09 00:30:51;;;;;;;;;77.33;61.67;;;;;;;;5053300;28;46248;-76
2021/11/09 00:33:16;;;;;;;;;73.00;58.00;;;;;;;;5053498;28;45393;-76
2021/11/09 00:35:42;;;;;;;;;70.67;55.67;;;;;;;;5052178;28;45337;-77
2021/11/09 00:38:09;;;;;;;;;73.00;55.33;;;;;;;;5054058;28;45356;-77
2021/11/09 00:40:36;;;;;;;;;72.00;56.00;;;;;;;;5035899;28;45451;-76
2021/11/09 00:43:03;;;;;;;;;71.00;56.67;;;;;;;;5052314;28;45311;-75
2021/11/09 00:45:29;;;;;;;;;73.33;58.67;;;;;;;;5054345;28;45295;-75
2021/11/09 00:47:54;;;;;;;;;75.33;58.67;;;;;;;;5054038;28;45582;-77
2021/11/09 00:50:21;;;;;;;;;69.67;56.00;;;;;;;;5053352;28;45465;-76
2021/11/09 00:52:46;;;;;;;;;73.33;55.00;;;;;;;;5050372;28;45412;-75
2021/11/09 00:55:15;;;;;;;;;68.67;53.33;;;;;;;;5053881;28;45507;-77
2021/11/09 00:57:41;;;;;;;;;70.67;54.67;;;;;;;;5053589;28;45471;-76
2021/11/09 01:00:07;;;;;;;;;71.67;56.33;;;;;;;;5053523;28;45534;-76
2021/11/09 01:02:33;;;;;;;;;72.67;56.67;;;;;;;;5051238;28;45285;-77
2021/11/09 01:04:59;;;;;;;;;72.67;57.33;;;;;;;;5054491;28;45354;-76
2021/11/09 01:07:24;;;;;;;;;74.33;55.33;;;;;;;;5055373;28;45473;-76
2021/11/09 01:09:49;;;;;;;;;73.00;57.67;;;;;;;;5053578;28;46022;-76
2021/11/09 01:12:15;;;;;;;;;72.00;54.33;;;;;;;;5053834;28;45469;-76
2021/11/09 01:14:40;;;;;;;;;67.25;53.75;;;;;;;;5054007;28;45525;-77
2021/11/09 01:17:06;;;;;;;;;68.25;53.75;;;;;;;;5053657;28;45288;-76
2021/11/09 01:19:33;;;;;;;;;73.00;58.00;;;;;;;;5052203;28;46227;-75
2021/11/09 01:21:58;;;;;;;;;65.00;54.00;;;;;;;;5051441;28;45518;-76
2021/11/09 01:24:23;;;;;;;;;61.00;50.75;;;;;;;;5052898;28;45340;-75
2021/11/09 01:26:48;;;;;;;;;70.50;55.50;;;;;;;;5052910;28;45488;-75
2021/11/09 01:29:14;;;;;;;;;72.00;54.33;;;;;;;;5054381;28;45466;-77
2021/11/09 01:31:40;;;;;;;;;64.25;51.00;;;;;;;;5058399;28;45419;-77
2021/11/09 01:34:06;;;;;;;;;66.00;53.25;;;;;;;;5037959;28;45546;-77
2021/11/09 01:36:31;;;;;;;;;66.75;52.00;;;;;;;;5055987;28;45632;-76
2021/11/09 01:38:57;;;;;;;;;65.67;51.00;;;;;;;;5056039;28;45276;-75
2021/11/09 01:41:23;;;;;;;;;66.75;54.00;;;;;;;;5056277;28;45515;-77
2021/11/09 01:43:49;;;;;;;;;63.00;51.25;;;;;;;;5058532;28;45490;-76
2021/11/09 01:46:15;;;;;;;;;67.33;50.33;;;;;;;;5055822;28;45590;-75
2021/11/09 01:48:41;;;;;;;;;63.75;50.25;;;;;;;;5055348;28;45475;-77
2021/11/09 01:51:07;;;;;;;;;66.00;51.00;;;;;;;;5055466;28;45463;-77
2021/11/09 01:53:34;;;;;;;;;63.00;50.75;;;;;;;;5055940;28;45330;-76
2021/11/09 01:56:02;;;;;;;;;65.00;51.75;;;;;;;;5056716;28;45539;-76
2021/11/09 01:58:27;;;;;;;;;68.00;50.75;;;;;;;;5055264;28;46534;-76
2021/11/09 02:00:54;;;;;;;;;63.25;49.50;;;;;;;;5054090;28;45497;-75
2021/11/09 02:03:20;;;;;;;;;65.00;50.25;;;;;;;;5055380;28;45395;-77
2021/11/09 02:05:46;;;;;;;;;63.25;51.00;;;;;;;;5055833;28;45505;-76
2021/11/09 02:08:11;;;;;;;;;68.00;53.00;;;;;;;;5055635;28;46555;-77
2021/11/09 02:10:38;;;;;;;;;65.00;51.25;;;;;;;;5057882;28;45348;-77
2021/11/09 02:13:04;;;;;;;;;67.25;53.75;;;;;;;;5055946;28;45346;-77
2021/11/09 02:15:30;;;;;;;;;66.50;50.50;;;;;;;;5055839;28;45458;-77
2021/11/09 02:17:56;;;;;;;;;42.75;36.00;;;;;;;;5055381;28;46386;-77
2021/11/09 02:20:22;;;;;;;;;56.25;45.25;;;;;;;;5055599;28;45554;-76
2021/11/09 02:22:49;;;;;;;;;61.50;49.00;;;;;;;;5058062;28;45380;-77
2021/11/09 02:25:15;;;;;;;;;64.75;49.25;;;;;;;;5038674;28;45492;-75
2021/11/09 02:27:40;;;;;;;;;61.50;48.50;;;;;;;;5055353;28;46184;-76
2021/11/09 02:30:08;;;;;;;;;57.75;47.50;;;;;;;;5055205;28;45349;-75
2021/11/09 02:32:33;;;;;;;;;57.50;45.75;;;;;;;;5055411;28;45796;-76
2021/11/09 02:34:58;;;;;;;;;62.00;48.75;;;;;;;;5056352;28;45348;-77
2021/11/09 02:37:24;;;;;;;;;58.50;48.00;;;;;;;;5055033;28;45326;-77
2021/11/09 02:39:49;;;;;;;;;63.25;50.25;;;;;;;;5053563;28;45434;-77
2021/11/09 02:42:16;;;;;;;;;62.25;48.50;;;;;;;;5054842;28;45538;-77
2021/11/09 02:44:49;;;;;;;;;55.75;45.25;;;;;;;;5055679;28;45317;-77
2021/11/09 02:47:15;;;;;;;;;58.75;44.25;;;;;;;;5054674;28;46235;-77
2021/11/09 02:49:54;;;;;;;;;56.50;45.00;;;;;;;;5057256;28;46476;-77
2021/11/09 02:52:20;;;;;;;;;57.50;46.00;;;;;;;;5054735;28;45278;-77
2021/11/09 02:54:48;;;;;;;;;62.25;47.25;;;;;;;;5055090;28;45483;-77
2021/11/09 03:00:06;;;;;;;;;56.50;45.00;;;;;;;;5055118;28;45481;-74
2021/11/09 03:02:46;;;;;;;;;58.50;45.00;;;;;;;;5054718;28;45478;-75
2021/11/09 03:05:19;;;;;;;;;49.50;40.50;;;;;;;;5055146;28;45237;-76
2021/11/09 03:10:41;;;;;;;;;53.00;41.75;;;;;;;;4956446;28;45508;-77
2021/11/09 03:13:06;;;;;;;;;56.25;43.25;;;;;;;;4957841;28;45426;-77
2021/11/09 03:15:34;;;;;;;;;52.50;41.25;;;;;;;;4960014;28;45535;-76
2021/11/09 03:18:06;;;;;;;;;54.00;42.00;;;;;;;;4957315;28;45375;-78
2021/11/09 03:20:39;;;;;;;;;50.00;42.00;;;;;;;;4957588;28;45362;-78
2021/11/09 03:47:27;;;;;;;;;46.00;36.25;;;;;;;;4950148;28;45330;-75
2021/11/09 03:49:53;;;;;;;;;53.25;42.00;;;;;;;;4970024;28;46070;-75
2021/11/09 03:52:22;;;;;;;;;52.75;43.00;;;;;;;;4967687;28;45462;-77
2021/11/09 03:54:52;;;;;;;;;49.25;39.00;;;;;;;;4963276;28;45648;-75
2021/11/09 03:57:23;;;;;;;;;49.25;41.00;;;;;;;;4960365;28;45625;-77
2021/11/09 04:02:52;;;;;;;;;49.50;42.00;;;;;;;;4918270;28;45622;-77
2021/11/09 04:05:21;;;;;;;;;51.25;40.25;;;;;;;;4901016;28;45432;-77
2021/11/09 04:11:05;;;;;;;;;50.75;42.00;;;;;;;;4957291;28;45415;-76
2021/11/09 04:15:48;;;;;;;;;51.25;40.50;;;;;;;;4994368;28;45510;-76
2021/11/09 04:20:58;;;;;;;;;52.00;42.75;;;;;;;;4994077;28;45512;-76
2021/11/09 04:47:48;;;;;;;;;52.50;44.75;;;;;;;;5034308;28;45346;-77
2021/11/09 04:49:51;;;;;;;;;49.75;41.50;;;;;;;;5041056;28;45536;-76
2021/11/09 04:52:45;;;;;;;;;52.50;43.25;;;;;;;;5052356;28;45360;-75
2021/11/09 05:08:38;;;;;;;;;52.00;42.50;;;;;;;;5045694;28;45352;-77
2021/11/09 05:11:04;;;;;;;;;50.50;42.25;;;;;;;;5059361;28;45400;-78
2021/11/09 05:13:29;;;;;;;;;45.50;35.50;;;;;;;;5058516;28;45417;-77
2021/11/09 05:15:55;;;;;;;;;52.75;43.00;;;;;;;;5057290;28;45463;-77
2021/11/09 05:18:21;;;;;;;;;45.00;37.25;;;;;;;;5058794;28;45491;-77
2021/11/09 05:20:46;;;;;;;;;53.50;44.50;;;;;;;;5058950;28;45423;-77
2021/11/09 05:23:12;;;;;;;;;54.25;44.75;;;;;;;;5058460;28;45444;-77
2021/11/09 05:25:37;;;;;;;;;58.50;42.25;;;;;;;;5060516;28;45510;-77
2021/11/09 05:28:05;;;;;;;;;52.25;44.00;;;;;;;;5058286;28;45562;-77
2021/11/09 05:30:30;;;;;;;;;58.25;42.25;;;;;;;;5058556;28;45768;-76
2021/11/09 05:32:59;;;;;;;;;63.50;48.00;;;;;;;;5058387;28;45475;-76
2021/11/09 05:35:24;;;;;;;;;51.25;42.25;;;;;;;;5058597;28;45517;-77
2021/11/09 05:37:52;;;;;;;;;60.25;47.25;;;;;;;;5060837;28;45461;-77
2021/11/09 05:40:19;;;;;;;;;55.75;45.00;;;;;;;;5058060;28;45536;-77
2021/11/09 05:42:45;;;;;;;;;55.50;44.50;;;;;;;;5057967;28;46226;-76
2021/11/09 05:45:10;;;;;;;;;59.75;47.50;;;;;;;;5058134;28;45459;-75
2021/11/09 05:47:36;;;;;;;;;50.75;41.00;;;;;;;;5058793;28;45470;-78
2021/11/09 05:50:02;;;;;;;;;57.25;45.25;;;;;;;;5059310;28;45292;-77
2021/11/09 05:52:27;;;;;;;;;62.00;50.50;;;;;;;;5057750;28;46453;-77
2021/11/09 05:54:52;;;;;;;;;67.50;51.50;;;;;;;;5056645;28;45325;-77
2021/11/09 05:57:18;;;;;;;;;58.25;48.00;;;;;;;;5057820;28;45450;-78
2021/11/09 05:59:43;;;;;;;;;58.25;46.50;;;;;;;;5057878;28;45371;-76
2021/11/09 06:02:08;;;;;;;;;59.50;46.25;;;;;;;;5057850;28;46071;-76
2021/11/09 06:04:34;;;;;;;;;66.50;52.00;;;;;;;;5059962;28;45348;-77
2021/11/09 06:06:59;;;;;;;;;60.25;46.00;;;;;;;;5057783;28;45454;-78
2021/11/09 06:09:24;;;;;;;;;62.00;48.25;;;;;;;;5057396;28;45471;-78
2021/11/09 06:11:49;;;;;;;;;67.25;53.00;;;;;;;;5039312;28;46405;-77
2021/11/09 06:14:15;;;;;;;;;60.00;46.00;;;;;;;;5057891;28;45484;-77
2021/11/09 06:16:40;;;;;;;;;57.50;45.75;;;;;;;;5037885;28;45304;-78
2021/11/09 06:19:05;;;;;;;;;59.00;48.00;;;;;;;;5054709;28;45445;-76
2021/11/09 06:21:31;;;;;;;;;81.67;62.00;;;;;;;;5053795;28;47090;-78
2021/11/09 06:23:57;;;;;;;;;63.75;49.25;;;;;;;;5053649;28;45505;-74
2021/11/09 06:26:22;;;;;;;;;65.00;49.25;;;;;;;;5054024;28;45529;-75
2021/11/09 06:28:48;;;;;;;;;58.50;45.00;;;;;;;;5056117;28;45333;-74
2021/11/09 06:31:13;;;;;;;;;62.75;49.25;;;;;;;;5052369;28;45379;-75
2021/11/09 06:33:39;;;;;;;;;61.75;48.50;;;;;;;;5052279;28;45527;-73
2021/11/09 06:36:04;;;;;;;;;58.50;48.50;;;;;;;;5035198;28;45433;-78
2021/11/09 06:38:30;;;;;;;;;58.75;47.75;;;;;;;;5053852;28;45629;-79
2021/11/09 06:40:55;;;;;;;;;50.25;43.00;;;;;;;;5054965;28;46890;-80
2021/11/09 06:43:20;;;;;;;;;61.50;48.25;;;;;;;;5052567;28;45494;-79
2021/11/09 06:45:46;;;;;;;;;61.75;51.00;;;;;;;;5053328;28;45510;-79
2021/11/09 06:48:12;;;;;;;;;57.25;47.50;;;;;;;;5051730;28;45498;-78
2021/11/09 06:50:37;;;;;;;;;57.25;46.75;;;;;;;;5056471;28;46169;-80
2021/11/09 06:53:03;;;;;;;;;59.50;47.25;;;;;;;;5053907;28;45525;-78
2021/11/09 06:55:29;;;;;;;;;74.33;57.00;;;;;;;;5055386;28;45436;-80
2021/11/09 06:57:54;;;;;;;;;63.75;50.50;;;;;;;;5051476;28;45415;-81
2021/11/09 07:00:21;;;;;;;;;60.00;47.00;;;;;;;;5052770;28;45593;-79
2021/11/09 07:02:46;;;;;;;;;54.50;44.75;;;;;;;;5053763;28;45445;-81
2021/11/09 07:05:12;;;;;;;;;62.75;50.25;;;;;;;;5053480;28;45354;-82
2021/11/09 07:07:37;;;;;;;;;59.50;46.25;;;;;;;;5055182;28;45431;-81
2021/11/09 07:10:03;;;;;;;;;55.25;46.25;;;;;;;;5050902;28;45563;-80
2021/11/09 07:12:29;;;;;;;;;57.75;46.50;;;;;;;;5051615;28;45320;-80
2021/11/09 07:14:54;;;;;;;;;57.50;46.00;;;;;;;;5051737;28;45428;-81
2021/11/09 07:17:19;;;;;;;;;59.25;47.00;;;;;;;;5053366;28;45492;-80
2021/11/09 07:19:49;;;;;;;;;59.00;46.25;;;;;;;;5055087;28;45381;-80
2021/11/09 07:22:15;;;;;;;;;56.00;45.25;;;;;;;;5050905;28;45656;-81
2021/11/09 07:24:41;;;;;;;;;56.75;44.50;;;;;;;;5052857;28;45686;-80
2021/11/09 07:27:06;;;;;;;;;47.50;40.25;;;;;;;;5052484;28;45521;-81
2021/11/09 07:29:31;;;;;;;;;50.75;39.75;;;;;;;;5052512;28;45500;-81
2021/11/09 07:31:57;;;;;;;;;54.75;43.75;;;;;;;;5054049;28;45545;-81
2021/11/09 07:34:22;;;;;;;;;53.50;39.75;;;;;;;;5053554;28;45908;-80
2021/11/09 07:36:48;;;;;;;;;54.75;41.50;;;;;;;;5034135;28;45432;-82
2021/11/09 07:39:13;;;;;;;;;54.25;44.00;;;;;;;;5052523;28;45431;-79
2021/11/09 07:41:41;;;;;;;;;49.25;39.75;;;;;;;;5052482;28;45513;-81
2021/11/09 07:44:08;;;;;;;;;53.00;43.75;;;;;;;;5052914;28;45496;-82
2021/11/09 07:46:34;;;;;;;;;55.25;45.50;;;;;;;;5054765;28;45494;-80
2021/11/09 07:48:59;;;;;;;;;50.25;40.25;;;;;;;;5051818;28;46212;-79
2021/11/09 07:51:25;;;;;;;;;54.25;44.75;;;;;;;;5049773;28;45408;-81
2021/11/09 07:53:50;;;;;;;;;55.75;42.00;;;;;;;;5033680;28;45444;-81
2021/11/09 07:56:21;;;;;;;;;45.75;36.25;;;;;;;;5051662;28;45284;-80
2021/11/09 08:01:21;;;;;;;;;57.25;46.00;;;;;;;;5051520;28;45427;-82
2021/11/09 08:04:02;;;;;;;;;55.00;44.00;;;;;;;;5051558;28;45329;-82
2021/11/09 08:06:51;;;;;;;;;45.75;36.50;;;;;;;;5050019;28;45632;-80
2021/11/09 08:09:23;;;;;;;;;53.25;43.75;;;;;;;;5051413;28;45767;-79
2021/11/09 08:11:49;;;;;;;;;51.25;41.00;;;;;;;;5034367;28;45553;-81
2021/11/09 08:14:15;;;;;;;;;51.00;39.75;;;;;;;;5051381;28;45363;-81
2021/11/09 08:16:41;;;;;;;;;53.25;41.50;;;;;;;;5053885;28;45485;-81
2021/11/09 08:19:06;;;;;;;;;55.50;41.50;;;;;;;;5050271;28;46609;-81
2021/11/09 08:21:32;;;;;;;;;36.00;32.75;;;;;;;;5051607;28;45588;-81
2021/11/09 08:23:58;;;;;;;;;43.75;38.00;;;;;;;;5052371;28;45393;-81
2021/11/09 08:26:24;;;;;;;;;40.25;33.50;;;;;;;;5050546;28;45661;-80
2021/11/09 08:28:49;;;;;;;;;41.25;34.25;;;;;;;;5054133;28;45986;-79
2021/11/09 08:31:18;;;;;;;;;40.25;33.75;;;;;;;;5051228;28;45483;-80
2021/11/09 08:33:43;;;;;;;;;37.00;34.75;;;;;;;;5049827;28;45257;-80
2021/11/09 08:36:12;;;;;;;;;37.00;32.75;;;;;;;;5053116;28;45496;-82
2021/11/09 08:38:37;;;;;;;;;42.25;34.75;;;;;;;;5051823;28;45553;-80
2021/11/09 08:41:03;;;;;;;;;41.75;32.50;;;;;;;;5052690;28;45632;-81
2021/11/09 08:43:31;;;;;;;;;34.75;32.50;;;;;;;;5054321;28;45435;-81
2021/11/09 08:46:06;;;;;;;;;36.25;31.25;;;;;;;;5049951;28;45371;-81
2021/11/09 08:48:37;;;;;;;;;36.75;32.00;;;;;;;;5051216;28;47240;-80
2021/11/09 08:51:07;;;;;;;;;44.25;36.00;;;;;;;;5051803;28;45570;-81
2021/11/09 08:53:37;;;;;;;;;46.25;35.50;;;;;;;;5051861;28;45416;-80
2021/11/09 09:06:22;;;;;;;;;33.50;31.75;;;;;;;;5049780;28;45343;-80
2021/11/09 09:08:48;;;;;;;;;31.50;29.25;;;;;;;;5050418;28;45311;-79
2021/11/09 09:11:13;;;;;;;;;37.00;32.25;;;;;;;;5052267;28;45222;-79
2021/11/09 09:13:38;;;;;;;;;39.00;32.50;;;;;;;;5035717;28;45289;-80
2021/11/09 09:16:04;;;;;;;;;32.25;28.50;;;;;;;;5050831;28;45446;-81
2021/11/09 09:18:29;;;;;;;;;32.75;31.00;;;;;;;;5050650;28;47324;-81
2021/11/09 09:21:02;;;;;;;;;34.25;31.75;;;;;;;;5051238;28;45262;-81
2021/11/09 09:23:35;;;;;;;;;41.50;33.00;;;;;;;;5051954;28;45279;-79
2021/11/09 09:52:02;;;;;;;;;35.75;32.25;;;;;;;;5049502;28;45587;-81
2021/11/09 09:53:03;;;;;;;;;28.50;25.50;;;;;;;;4990749;28;45328;-79
2021/11/09 09:55:39;;;;;;;;;27.00;26.50;;;;;;;;4994488;28;45409;-79
2021/11/09 09:58:05;;;;;;;;;26.25;25.50;;;;;;;;4994129;28;45632;-81
2021/11/09 10:00:30;;;;;;;;;24.25;19.75;;;;;;;;4987564;28;48584;-81
2021/11/09 10:02:57;;;;;;;;;26.00;22.75;;;;;;;;4993165;28;45442;-81
2021/11/09 10:05:23;;;;;;;;;31.50;26.75;;;;;;;;4994075;28;45527;-80
2021/11/09 10:07:52;;;;;;;;;36.00;30.75;;;;;;;;4994564;28;45543;-81
2021/11/09 10:10:17;;;;;;;;;30.25;24.75;;;;;;;;4993427;28;45497;-80
2021/11/09 10:12:44;;;;;;;;;21.75;21.00;;;;;;;;4993413;28;45981;-81
2021/11/09 10:15:14;;;;;;;;;27.00;25.25;;;;;;;;4993927;28;45661;-80
2021/11/09 10:17:40;;;;;;;;;22.00;19.25;;;;;;;;4993044;28;45361;-80
2021/11/09 10:20:25;;;;;;;;;28.75;24.75;;;;;;;;5052397;28;46768;-80
2021/11/09 10:23:01;;;;;;;;;26.50;21.00;;;;;;;;5050716;28;45360;-79
2021/11/09 10:25:27;;;;;;;;;29.00;24.25;;;;;;;;5055773;28;45436;-80
2021/11/09 10:27:54;;;;;;;;;17.75;15.75;;;;;;;;5059841;27;45514;-81
2021/11/09 10:30:21;;;;;;;;;23.00;21.75;;;;;;;;5025434;28;46820;-80
2021/11/09 10:32:46;;;;;;;;;28.25;23.75;;;;;;;;5053977;28;45469;-81
2021/11/09 10:35:12;;;;;;;;;19.75;17.50;;;;;;;;5053738;28;45559;-81
2021/11/09 10:37:38;;;;;;;;;29.00;24.00;;;;;;;;5056369;28;45326;-80
2021/11/09 10:40:06;;;;;;;;;21.25;18.00;;;;;;;;5053654;28;45588;-80
2021/11/09 10:42:32;;;;;;;;;27.75;25.50;;;;;;;;5053734;28;45398;-80
2021/11/09 10:44:59;;;;;;;;;23.50;22.50;;;;;;;;5053055;28;45477;-81
2021/11/09 10:47:27;;;;;;;;;23.75;20.75;;;;;;;;5053344;28;45374;-81
2021/11/09 10:49:55;;;;;;;;;36.75;29.75;;;;;;;;5054955;28;46227;-80
2021/11/09 10:52:28;;;;;;;;;36.00;30.00;;;;;;;;5052557;28;45524;-79
2021/11/09 10:55:17;;;;;;;;;32.50;27.25;;;;;;;;5052761;28;45379;-80
2021/11/09 10:58:01;;;;;;;;;38.25;32.00;;;;;;;;5053020;28;45535;-81
2021/11/09 11:00:35;;;;;;;;;41.00;34.25;;;;;;;;5052548;28;46416;-82
2021/11/09 11:03:27;;;;;;;;;34.75;32.00;;;;;;;;5051436;28;45594;-81
2021/11/09 11:06:06;;;;;;;;;36.00;30.75;;;;;;;;5051695;28;45340;-82
2021/11/09 11:08:31;;;;;;;;;28.75;23.75;;;;;;;;5037918;28;45456;-82
2021/11/09 11:10:56;;;;;;;;;21.25;21.25;;;;;;;;5054370;28;46163;-81
2021/11/09 11:13:23;;;;;;;;;25.75;24.75;;;;;;;;5053438;28;45418;-80
2021/11/09 11:16:01;;;;;;;;;19.00;19.00;;;;;;;;5052247;28;45321;-81
2021/11/09 11:18:31;;;;;;;;;39.25;34.00;;;;;;;;5052181;28;45477;-80
2021/11/09 11:20:57;;;;;;;;;31.50;28.75;;;;;;;;5052260;28;45448;-81
2021/11/09 11:23:24;;;;;;;;;21.25;19.75;;;;;;;;5032725;28;45369;-81
2021/11/09 11:25:49;;;;;;;;;32.75;30.75;;;;;;;;5055480;28;45393;-81
2021/11/09 11:28:14;;;;;;;;;24.25;22.25;;;;;;;;5052864;28;45468;-81
2021/11/09 11:30:40;;;;;;;;;24.50;20.00;;;;;;;;5034811;28;47754;-80
2021/11/09 11:33:05;;;;;;;;;27.00;24.50;;;;;;;;5052761;28;45502;-81
2021/11/09 11:35:30;;;;;;;;;26.00;24.50;;;;;;;;5052549;28;45303;-81
2021/11/09 11:37:56;;;;;;;;;28.50;27.00;;;;;;;;5035976;28;45571;-80
2021/11/09 11:40:21;;;;;;;;;35.75;30.25;;;;;;;;5035171;28;45893;-82
2021/11/09 11:42:46;;;;;;;;;24.00;22.00;;;;;;;;5050998;28;45388;-81
2021/11/09 11:45:12;;;;;;;;;21.75;21.50;;;;;;;;5051117;28;45372;-80
2021/11/09 11:47:37;;;;;;;;;21.50;18.75;;;;;;;;5052453;28;45418;-81
2021/11/09 11:50:11;;;;;;;;;26.00;22.75;;;;;;;;5053011;28;46658;-81
2021/11/09 11:52:43;;;;;;;;;24.50;22.00;;;;;;;;5053086;28;45517;-80
2021/11/09 11:55:21;;;;;;;;;21.75;20.25;;;;;;;;5050292;28;45443;-81
2021/11/09 11:57:46;;;;;;;;;15.50;15.25;;;;;;;;5050568;28;45720;-80
2021/11/09 12:00:26;;;;;;;;;20.00;18.25;;;;;;;;5052092;28;45451;-80
2021/11/09 12:02:51;;;;;;;;;23.25;20.00;;;;;;;;5052186;28;45342;-81
2021/11/09 12:07:53;;;;;;;;;17.00;14.00;;;;;;;;5077280;22;46174;-81
2021/11/09 12:10:20;;;;;;;;;15.25;13.00;;;;;;;;5065790;22;46178;-82
2021/11/09 12:12:58;;;;;;;;;19.75;15.50;;;;;;;;5052861;28;45314;-80
2021/11/09 12:15:40;;;;;;;;;17.00;14.75;;;;;;;;5053253;28;45633;-83
2021/11/09 12:18:25;;;;;;;;;12.25;11.50;;;;;;;;5034375;28;45508;-81
2021/11/09 12:20:51;;;;;;;;;21.50;19.75;;;;;;;;5052529;28;46672;-81
2021/11/09 12:23:21;;;;;;;;;14.00;13.00;;;;;;;;5053288;28;45547;-79
2021/11/09 12:25:48;;;;;;;;;15.25;13.00;;;;;;;;5054352;28;45311;-79
2021/11/09 12:28:14;;;;;;;;;20.75;18.75;;;;;;;;5053060;28;45272;-78
2021/11/09 12:30:40;;;;;;;;;19.25;16.75;;;;;;;;5053187;28;46242;-81
2021/11/09 12:33:16;;;;;;;;;20.25;18.00;;;;;;;;5053373;28;46007;-80
2021/11/09 12:35:47;;;;;;;;;15.50;15.25;;;;;;;;5052576;28;45429;-79
2021/11/09 12:38:14;;;;;;;;;13.75;13.75;;;;;;;;5052916;28;45344;-79
2021/11/09 12:40:46;;;;;;;;;12.00;12.00;;;;;;;;5053344;28;47595;-79
2021/11/09 12:43:13;;;;;;;;;12.67;11.33;;;;;;;;5034224;28;46110;-78
2021/11/09 12:45:40;;;;;;;;;12.33;9.67;;;;;;;;5052629;28;45281;-80
2021/11/09 12:48:06;;;;;;;;;13.00;11.67;;;;;;;;5051248;28;45338;-80
2021/11/09 12:50:33;;;;;;;;;13.33;12.33;;;;;;;;5037956;28;46281;-80
2021/11/09 12:53:02;;;;;;;;;10.33;10.33;;;;;;;;5052160;28;45419;-80
2021/11/09 12:55:27;;;;;;;;;12.50;11.00;;;;;;;;5052907;28;45376;-79
2021/11/09 12:57:53;;;;;;;;;14.25;11.75;;;;;;;;5052908;28;45572;-80
2021/11/09 13:00:26;;;;;;;;;13.00;10.00;;;;;;;;5053560;28;45542;-79
2021/11/09 13:02:53;;;;;;;;;11.50;11.00;;;;;;;;5053341;28;45351;-80
2021/11/09 13:05:27;;;;;;;;;17.50;14.75;;;;;;;;5053970;28;45334;-78
2021/11/09 13:07:53;;;;;;;;;8.75;8.75;;;;;;;;5049605;28;45384;-78
2021/11/09 13:10:22;;;;;;;;;11.25;10.75;;;;;;;;5052749;28;46075;-79
2021/11/09 13:12:50;;;;;;;;;6.33;6.33;;;;;;;;5053009;28;45431;-79
2021/11/09 13:15:16;;;;;;;;;15.25;13.50;;;;;;;;5053323;28;45462;-80
2021/11/09 13:17:45;;;;;;;;;13.75;11.50;;;;;;;;5054487;28;45459;-79
2021/11/09 13:20:23;;;;;;;;;6.33;6.00;;;;;;;;5062455;28;47562;-80
2021/11/09 13:22:48;;;;;;;;;9.00;9.00;;;;;;;;5051276;28;45482;-79
2021/11/09 13:25:13;;;;;;;;;11.25;11.25;;;;;;;;5054438;28;45332;-80
2021/11/09 13:27:43;;;;;;;;;10.25;9.25;;;;;;;;5056811;28;45480;-79
2021/11/09 13:30:27;;;;;;;;;10.25;9.25;;;;;;;;5056600;28;45403;-80
2021/11/09 13:32:54;;;;;;;;;6.50;5.00;;;;;;;;5056918;28;45357;-79
2021/11/09 13:35:24;;;;;;;;;14.00;11.25;;;;;;;;5038794;28;45335;-80
2021/11/09 13:37:50;;;;;;;;;10.50;9.50;;;;;;;;5037365;28;45453;-80
2021/11/09 13:40:17;;;;;;;;;17.25;15.25;;;;;;;;5056461;28;45931;-80
2021/11/09 13:42:42;;;;;;;;;14.50;13.25;;;;;;;;5056841;28;45367;-79
2021/11/09 13:45:17;;;;;;;;;12.50;12.25;;;;;;;;5056743;28;45351;-80
2021/11/09 13:47:42;;;;;;;;;16.75;14.75;;;;;;;;5056793;28;45634;-80
2021/11/09 13:50:12;;;;;;;;;10.67;10.00;;;;;;;;5037885;28;47381;-80
2021/11/09 13:52:42;;;;;;;;;13.50;11.50;;;;;;;;5056713;28;45427;-78
2021/11/09 13:55:07;;;;;;;;;13.75;12.50;;;;;;;;5037988;28;46110;-80
2021/11/09 13:57:32;;;;;;;;;18.50;14.50;;;;;;;;5056303;28;45389;-80
2021/11/09 14:00:16;;;;;;;;;11.75;10.50;;;;;;;;5056285;28;46626;-80
2021/11/09 14:02:45;;;;;;;;;14.75;11.00;;;;;;;;5056334;28;45377;-80
2021/11/09 14:13:06;;;;;;;;;9.00;9.00;;;;;;;;5055679;28;45526;-79
2021/11/09 14:17:56;;;;;;;;;7.75;7.00;;;;;;;;5055463;28;45483;-80
2021/11/09 14:20:25;;;;;;;;;9.00;8.00;;;;;;;;5054840;28;46410;-80
2021/11/09 14:23:02;;;;;;;;;9.75;9.25;;;;;;;;5051174;28;45316;-81
2021/11/09 14:25:28;;;;;;;;;13.50;10.75;;;;;;;;5052836;28;45490;-81
2021/11/09 14:27:54;;;;;;;;;9.50;8.25;;;;;;;;5055180;28;45506;-81
2021/11/09 14:30:21;;;;;;;;;15.25;12.00;;;;;;;;5037714;28;48122;-79
2021/11/09 14:32:47;;;;;;;;;9.25;9.25;;;;;;;;5056209;28;45404;-81
2021/11/09 14:35:15;;;;;;;;;10.50;7.50;;;;;;;;5056263;28;45419;-81
2021/11/09 14:37:44;;;;;;;;;9.75;9.00;;;;;;;;5055365;28;45423;-81
2021/11/09 14:40:11;;;;;;;;;7.75;7.00;;;;;;;;5055687;28;46216;-81
2021/11/09 14:45:29;;;;;;;;;18.50;16.75;;;;;;;;5055566;28;45490;-80
2021/11/09 14:48:04;;;;;;;;;8.25;7.25;;;;;;;;5055755;28;45529;-82
2021/11/09 14:53:21;;;;;;;;;9.00;8.50;;;;;;;;5054959;28;45816;-80
2021/11/09 14:55:52;;;;;;;;;12.75;9.25;;;;;;;;5037041;28;45392;-81
2021/11/09 14:58:31;;;;;;;;;7.25;7.25;;;;;;;;5055349;28;45472;-80
2021/11/09 15:01:01;;;;;;;;;16.00;14.25;;;;;;;;5037050;28;47651;-79
2021/11/09 15:03:27;;;;;;;;;10.25;8.00;;;;;;;;5055536;28;45495;-81
2021/11/09 15:05:55;;;;;;;;;6.25;6.25;;;;;;;;5054970;28;45438;-81
2021/11/09 15:08:28;;;;;;;;;14.00;13.50;;;;;;;;5055092;28;45342;-80
2021/11/09 15:11:12;;;;;;;;;8.00;7.50;;;;;;;;5051707;28;47343;-81
2021/11/09 15:27:42;;;;;;;;;12.00;10.50;;;;;;;;5053834;28;45222;-80
2021/11/09 15:30:13;;;;;;;;;9.75;6.75;;;;;;;;5060413;28;44837;-80
2021/11/09 15:32:39;;;;;;;;;6.00;5.00;;;;;;;;5057056;28;46185;-79
2021/11/09 15:35:36;;;;;;;;;5.50;5.50;;;;;;;;5053140;28;45383;-81
2021/11/09 15:38:03;;;;;;;;;13.75;9.00;;;;;;;;5055424;28;45392;-81
2021/11/09 15:40:28;;;;;;;;;12.25;11.75;;;;;;;;5055910;28;45534;-79
2021/11/09 15:42:53;;;;;;;;;11.50;9.00;;;;;;;;5054920;28;45434;-81
2021/11/09 15:45:19;;;;;;;;;9.00;9.00;;;;;;;;5054958;28;45383;-80
2021/11/09 15:47:44;;;;;;;;;12.50;11.25;;;;;;;;5054996;28;45391;-78
2021/11/09 15:50:11;;;;;;;;;9.25;7.75;;;;;;;;5053422;28;45415;-80
2021/11/09 15:52:36;;;;;;;;;16.25;14.00;;;;;;;;5040311;28;46203;-79
2021/11/09 15:55:02;;;;;;;;;13.50;13.25;;;;;;;;5051479;28;45285;-82
2021/11/09 15:57:28;;;;;;;;;13.25;11.00;;;;;;;;5053698;28;45337;-80
2021/11/09 15:59:54;;;;;;;;;7.50;7.25;;;;;;;;5053850;28;45376;-81
2021/11/09 16:02:21;;;;;;;;;15.50;12.00;;;;;;;;5053457;28;47261;-80
2021/11/09 16:04:46;;;;;;;;;8.25;7.25;;;;;;;;5053953;28;45515;-80
2021/11/09 16:07:13;;;;;;;;;7.50;6.00;;;;;;;;5053765;28;45524;-79
2021/11/09 16:09:42;;;;;;;;;11.50;9.75;;;;;;;;5053091;28;45392;-80
2021/11/09 16:12:07;;;;;;;;;9.50;7.00;;;;;;;;5034919;28;46264;-80
2021/11/09 16:14:33;;;;;;;;;17.75;17.75;;;;;;;;5053222;28;47057;-81
2021/11/09 16:16:58;;;;;;;;;10.75;8.50;;;;;;;;5035064;28;45378;-80
2021/11/09 16:19:24;;;;;;;;;11.50;8.75;;;;;;;;5034933;28;45370;-80
2021/11/09 16:21:50;;;;;;;;;30.00;26.25;;;;;;;;5052834;28;46280;-80
2021/11/09 16:24:15;;;;;;;;;19.00;18.25;;;;;;;;5052766;28;45464;-81
2021/11/09 16:26:41;;;;;;;;;20.00;17.50;;;;;;;;5053227;28;45456;-82
2021/11/09 16:29:06;;;;;;;;;11.50;10.25;;;;;;;;5053682;28;45395;-81
2021/11/09 16:31:32;;;;;;;;;15.00;14.50;;;;;;;;5053517;28;46820;-80
2021/11/09 16:33:58;;;;;;;;;16.00;15.00;;;;;;;;5052480;28;45349;-80
2021/11/09 16:36:26;;;;;;;;;17.75;13.25;;;;;;;;5053652;28;45414;-81
2021/11/09 16:38:57;;;;;;;;;9.00;9.00;;;;;;;;5053744;28;45339;-81
2021/11/09 16:41:25;;;;;;;;;14.00;12.00;;;;;;;;5037642;28;47260;-81
2021/11/09 16:46:37;;;;;;;;;13.00;12.25;;;;;;;;5053261;28;45575;-81
2021/11/09 16:51:49;;;;;;;;;21.00;19.50;;;;;;;;5052440;28;45295;-79
2021/11/09 17:00:23;;;;;;;;;17.00;14.50;;;;;;;;4990370;28;45648;-76
2021/11/09 18:21:25;;;;;;;;;27.50;23.00;;;;;;;;4955343;28;45430;-83